sensor_id;sensor_type;location;lat;lon;timestamp;P1;durP1;ratioP1;P2;durP2;ratioP2
48534;SDS011;34323;52.022;5.686;2022-10-31T00:00:19;8.05;;;4.55;;
48534;SDS011;34323;52.022;5.686;2022-10-31T00:02:44;8.50;;;4.97;;
48534;SDS011;34323;52.022;5.686;2022-10-31T00:05:10;10.35;;;4.70;;
48534;SDS011;34323;52.022;5.686;2022-10-31T00:07:35;15.88;;;4.47;;
48534;SDS011;34323;52.022;5.686;2022-10-31T00:10:01;15.82;;;4.53;;
48534;SDS011;34323;52.022;5.686;2022-10-31T00:12:27;8.63;;;3.88;;
48534;SDS011;34323;52.022;5.686;2022-10-31T00:14:52;7.93;;;4.72;;
48534;SDS011;34323;52.022;5.686;2022-10-31T00:17:18;10.38;;;4.03;;
48534;SDS011;34323;52.022;5.686;2022-10-31T00:19:44;15.35;;;6.93;;
48534;SDS011;34323;52.022;5.686;2022-10-31T00:22:09;14.18;;;4.38;;
48534;SDS011;34323;52.022;5.686;2022-10-31T00:24:35;9.18;;;4.63;;
48534;SDS011;34323;52.022;5.686;2022-10-31T00:27:00;7.15;;;4.30;;
48534;SDS011;34323;52.022;5.686;2022-10-31T00:29:26;6.93;;;4.57;;
48534;SDS011;34323;52.022;5.686;2022-10-31T00:31:51;9.90;;;4.85;;
48534;SDS011;34323;52.022;5.686;2022-10-31T00:34:17;12.38;;;4.60;;
48534;SDS011;34323;52.022;5.686;2022-10-31T00:36:43;12.52;;;4.88;;
48534;SDS011;34323;52.022;5.686;2022-10-31T00:39:08;10.00;;;4.88;;
48534;SDS011;34323;52.022;5.686;2022-10-31T00:41:34;10.23;;;5.07;;
48534;SDS011;34323;52.022;5.686;2022-10-31T00:44:00;10.77;;;4.80;;
48534;SDS011;34323;52.022;5.686;2022-10-31T00:46:25;9.05;;;4.38;;
48534;SDS011;34323;52.022;5.686;2022-10-31T00:48:51;7.95;;;3.95;;
48534;SDS011;34323;52.022;5.686;2022-10-31T00:51:16;15.07;;;5.28;;
48534;SDS011;34323;52.022;5.686;2022-10-31T00:53:42;9.50;;;5.30;;
48534;SDS011;34323;52.022;5.686;2022-10-31T00:56:08;9.07;;;5.03;;
48534;SDS011;34323;52.022;5.686;2022-10-31T00:58:33;11.23;;;4.78;;
48534;SDS011;34323;52.022;5.686;2022-10-31T01:00:59;10.20;;;4.90;;
48534;SDS011;34323;52.022;5.686;2022-10-31T01:03:25;12.40;;;5.03;;
48534;SDS011;34323;52.022;5.686;2022-10-31T01:05:56;15.55;;;4.70;;
48534;SDS011;34323;52.022;5.686;2022-10-31T01:08:23;11.38;;;5.15;;
48534;SDS011;34323;52.022;5.686;2022-10-31T01:13:41;9.40;;;4.28;;
48534;SDS011;34323;52.022;5.686;2022-10-31T01:16:07;11.00;;;5.13;;
48534;SDS011;34323;52.022;5.686;2022-10-31T01:18:35;10.75;;;4.90;;
48534;SDS011;34323;52.022;5.686;2022-10-31T01:21:05;8.95;;;5.03;;
48534;SDS011;34323;52.022;5.686;2022-10-31T01:23:41;9.27;;;5.38;;
48534;SDS011;34323;52.022;5.686;2022-10-31T01:28:45;9.15;;;5.30;;
48534;SDS011;34323;52.022;5.686;2022-10-31T01:31:15;11.32;;;5.00;;
48534;SDS011;34323;52.022;5.686;2022-10-31T01:33:43;13.60;;;5.60;;
48534;SDS011;34323;52.022;5.686;2022-10-31T01:38:37;15.65;;;6.05;;
48534;SDS011;34323;52.022;5.686;2022-10-31T01:41:03;9.05;;;5.72;;
48534;SDS011;34323;52.022;5.686;2022-10-31T01:48:54;12.50;;;5.68;;
48534;SDS011;34323;52.022;5.686;2022-10-31T01:51:23;10.75;;;6.00;;
48534;SDS011;34323;52.022;5.686;2022-10-31T01:53:54;11.82;;;5.78;;
48534;SDS011;34323;52.022;5.686;2022-10-31T01:56:23;11.15;;;6.07;;
48534;SDS011;34323;52.022;5.686;2022-10-31T01:58:49;11.30;;;5.47;;
48534;SDS011;34323;52.022;5.686;2022-10-31T02:01:16;13.90;;;5.97;;
48534;SDS011;34323;52.022;5.686;2022-10-31T02:03:42;9.52;;;5.85;;
48534;SDS011;34323;52.022;5.686;2022-10-31T02:06:13;15.18;;;5.45;;
48534;SDS011;34323;52.022;5.686;2022-10-31T02:08:58;13.93;;;6.15;;
48534;SDS011;34323;52.022;5.686;2022-10-31T02:11:25;9.10;;;5.30;;
48534;SDS011;34323;52.022;5.686;2022-10-31T02:13:53;9.00;;;5.25;;
48534;SDS011;34323;52.022;5.686;2022-10-31T02:16:19;11.13;;;5.60;;
48534;SDS011;34323;52.022;5.686;2022-10-31T02:18:44;10.10;;;5.85;;
48534;SDS011;34323;52.022;5.686;2022-10-31T02:23:41;7.82;;;5.00;;
48534;SDS011;34323;52.022;5.686;2022-10-31T02:26:45;11.13;;;5.80;;
48534;SDS011;34323;52.022;5.686;2022-10-31T02:32:36;15.45;;;5.60;;
48534;SDS011;34323;52.022;5.686;2022-10-31T02:44:08;14.20;;;5.88;;
48534;SDS011;34323;52.022;5.686;2022-10-31T02:46:47;9.10;;;5.53;;
48534;SDS011;34323;52.022;5.686;2022-10-31T02:49:21;10.75;;;5.72;;
48534;SDS011;34323;52.022;5.686;2022-10-31T02:51:54;16.80;;;6.13;;
48534;SDS011;34323;52.022;5.686;2022-10-31T02:54:23;10.52;;;5.60;;
48534;SDS011;34323;52.022;5.686;2022-10-31T02:56:51;11.82;;;6.38;;
48534;SDS011;34323;52.022;5.686;2022-10-31T02:59:22;11.80;;;6.45;;
48534;SDS011;34323;52.022;5.686;2022-10-31T03:02:04;11.13;;;5.38;;
48534;SDS011;34323;52.022;5.686;2022-10-31T03:04:42;9.02;;;5.50;;
48534;SDS011;34323;52.022;5.686;2022-10-31T03:10:20;12.20;;;6.82;;
48534;SDS011;34323;52.022;5.686;2022-10-31T03:13:01;10.95;;;6.03;;
48534;SDS011;34323;52.022;5.686;2022-10-31T03:15:30;9.70;;;6.13;;
48534;SDS011;34323;52.022;5.686;2022-10-31T03:20:35;11.27;;;5.70;;
48534;SDS011;34323;52.022;5.686;2022-10-31T03:23:05;15.65;;;6.78;;
48534;SDS011;34323;52.022;5.686;2022-10-31T03:25:35;12.23;;;6.07;;
48534;SDS011;34323;52.022;5.686;2022-10-31T03:28:02;10.40;;;6.55;;
48534;SDS011;34323;52.022;5.686;2022-10-31T03:30:30;16.70;;;6.85;;
48534;SDS011;34323;52.022;5.686;2022-10-31T03:33:01;10.23;;;6.40;;
48534;SDS011;34323;52.022;5.686;2022-10-31T03:35:30;18.27;;;7.55;;
48534;SDS011;34323;52.022;5.686;2022-10-31T03:37:57;11.10;;;6.75;;
48534;SDS011;34323;52.022;5.686;2022-10-31T03:40:25;13.18;;;7.10;;
48534;SDS011;34323;52.022;5.686;2022-10-31T03:43:03;9.85;;;6.55;;
48534;SDS011;34323;52.022;5.686;2022-10-31T03:45:33;11.35;;;6.88;;
48534;SDS011;34323;52.022;5.686;2022-10-31T03:48:05;10.35;;;7.25;;
48534;SDS011;34323;52.022;5.686;2022-10-31T03:53:39;12.95;;;6.38;;
48534;SDS011;34323;52.022;5.686;2022-10-31T03:56:12;14.45;;;6.97;;
48534;SDS011;34323;52.022;5.686;2022-10-31T03:58:50;11.32;;;6.38;;
48534;SDS011;34323;52.022;5.686;2022-10-31T04:01:25;10.85;;;7.05;;
48534;SDS011;34323;52.022;5.686;2022-10-31T04:03:54;11.38;;;6.72;;
48534;SDS011;34323;52.022;5.686;2022-10-31T04:06:20;17.80;;;7.28;;
48534;SDS011;34323;52.022;5.686;2022-10-31T04:08:53;13.85;;;7.03;;
48534;SDS011;34323;52.022;5.686;2022-10-31T04:11:23;12.00;;;7.88;;
48534;SDS011;34323;52.022;5.686;2022-10-31T04:13:53;19.08;;;7.63;;
48534;SDS011;34323;52.022;5.686;2022-10-31T04:16:19;17.63;;;8.02;;
48534;SDS011;34323;52.022;5.686;2022-10-31T04:18:46;15.60;;;7.00;;
48534;SDS011;34323;52.022;5.686;2022-10-31T04:21:12;16.95;;;7.85;;
48534;SDS011;34323;52.022;5.686;2022-10-31T04:23:37;11.82;;;7.63;;
48534;SDS011;34323;52.022;5.686;2022-10-31T04:26:03;13.45;;;7.82;;
48534;SDS011;34323;52.022;5.686;2022-10-31T04:28:29;16.40;;;7.07;;
48534;SDS011;34323;52.022;5.686;2022-10-31T04:30:54;16.98;;;7.05;;
48534;SDS011;34323;52.022;5.686;2022-10-31T04:33:20;13.65;;;7.60;;
48534;SDS011;34323;52.022;5.686;2022-10-31T04:35:45;14.18;;;8.15;;
48534;SDS011;34323;52.022;5.686;2022-10-31T04:38:11;15.15;;;8.43;;
48534;SDS011;34323;52.022;5.686;2022-10-31T04:40:37;13.95;;;7.65;;
48534;SDS011;34323;52.022;5.686;2022-10-31T04:43:02;19.02;;;9.18;;
48534;SDS011;34323;52.022;5.686;2022-10-31T04:45:28;16.67;;;8.75;;
48534;SDS011;34323;52.022;5.686;2022-10-31T04:47:54;16.17;;;8.77;;
48534;SDS011;34323;52.022;5.686;2022-10-31T04:50:19;16.05;;;9.77;;
48534;SDS011;34323;52.022;5.686;2022-10-31T04:52:45;17.60;;;8.88;;
48534;SDS011;34323;52.022;5.686;2022-10-31T04:55:11;17.38;;;8.75;;
48534;SDS011;34323;52.022;5.686;2022-10-31T04:57:41;15.15;;;9.00;;
48534;SDS011;34323;52.022;5.686;2022-10-31T05:00:09;17.75;;;9.00;;
48534;SDS011;34323;52.022;5.686;2022-10-31T05:02:42;15.68;;;9.43;;
48534;SDS011;34323;52.022;5.686;2022-10-31T05:05:15;14.90;;;9.13;;
48534;SDS011;34323;52.022;5.686;2022-10-31T05:07:43;16.65;;;8.63;;
48534;SDS011;34323;52.022;5.686;2022-10-31T05:10:10;24.70;;;9.70;;
48534;SDS011;34323;52.022;5.686;2022-10-31T05:12:38;16.70;;;9.20;;
48534;SDS011;34323;52.022;5.686;2022-10-31T05:15:10;16.30;;;9.93;;
48534;SDS011;34323;52.022;5.686;2022-10-31T05:17:35;17.02;;;11.25;;
48534;SDS011;34323;52.022;5.686;2022-10-31T05:20:01;22.08;;;12.35;;
48534;SDS011;34323;52.022;5.686;2022-10-31T05:22:26;19.45;;;11.13;;
48534;SDS011;34323;52.022;5.686;2022-10-31T05:24:52;20.45;;;12.07;;
48534;SDS011;34323;52.022;5.686;2022-10-31T05:27:17;19.67;;;11.52;;
48534;SDS011;34323;52.022;5.686;2022-10-31T05:29:43;20.17;;;11.48;;
48534;SDS011;34323;52.022;5.686;2022-10-31T05:32:08;18.30;;;11.45;;
48534;SDS011;34323;52.022;5.686;2022-10-31T05:34:34;20.42;;;11.15;;
48534;SDS011;34323;52.022;5.686;2022-10-31T05:36:59;19.60;;;11.88;;
48534;SDS011;34323;52.022;5.686;2022-10-31T05:39:25;22.20;;;12.35;;
48534;SDS011;34323;52.022;5.686;2022-10-31T05:41:50;21.42;;;11.93;;
48534;SDS011;34323;52.022;5.686;2022-10-31T05:44:16;28.45;;;12.70;;
48534;SDS011;34323;52.022;5.686;2022-10-31T05:46:41;17.95;;;11.93;;
48534;SDS011;34323;52.022;5.686;2022-10-31T05:49:07;22.75;;;12.20;;
48534;SDS011;34323;52.022;5.686;2022-10-31T05:51:32;22.58;;;13.23;;
48534;SDS011;34323;52.022;5.686;2022-10-31T05:53:58;18.10;;;11.68;;
48534;SDS011;34323;52.022;5.686;2022-10-31T05:56:23;22.95;;;11.68;;
48534;SDS011;34323;52.022;5.686;2022-10-31T05:58:49;21.13;;;11.95;;
48534;SDS011;34323;52.022;5.686;2022-10-31T06:01:14;18.25;;;11.73;;
48534;SDS011;34323;52.022;5.686;2022-10-31T06:03:40;21.20;;;11.70;;
48534;SDS011;34323;52.022;5.686;2022-10-31T06:06:06;17.95;;;11.10;;
48534;SDS011;34323;52.022;5.686;2022-10-31T06:08:32;23.35;;;12.18;;
48534;SDS011;34323;52.022;5.686;2022-10-31T06:10:57;20.63;;;12.23;;
48534;SDS011;34323;52.022;5.686;2022-10-31T06:13:23;23.75;;;13.07;;
48534;SDS011;34323;52.022;5.686;2022-10-31T06:15:48;20.60;;;11.85;;
48534;SDS011;34323;52.022;5.686;2022-10-31T06:18:14;24.92;;;11.77;;
48534;SDS011;34323;52.022;5.686;2022-10-31T06:20:39;18.65;;;11.38;;
48534;SDS011;34323;52.022;5.686;2022-10-31T06:23:05;18.95;;;11.60;;
48534;SDS011;34323;52.022;5.686;2022-10-31T06:25:31;22.02;;;11.68;;
48534;SDS011;34323;52.022;5.686;2022-10-31T06:27:57;27.05;;;12.85;;
48534;SDS011;34323;52.022;5.686;2022-10-31T06:30:23;22.80;;;11.30;;
48534;SDS011;34323;52.022;5.686;2022-10-31T06:32:49;17.63;;;11.65;;
48534;SDS011;34323;52.022;5.686;2022-10-31T06:35:15;21.00;;;11.90;;
48534;SDS011;34323;52.022;5.686;2022-10-31T06:37:40;17.35;;;11.48;;
48534;SDS011;34323;52.022;5.686;2022-10-31T06:40:06;26.20;;;12.65;;
48534;SDS011;34323;52.022;5.686;2022-10-31T06:42:32;18.77;;;11.85;;
48534;SDS011;34323;52.022;5.686;2022-10-31T06:44:57;25.30;;;11.80;;
48534;SDS011;34323;52.022;5.686;2022-10-31T06:47:23;26.23;;;12.07;;
48534;SDS011;34323;52.022;5.686;2022-10-31T06:49:48;24.98;;;12.52;;
48534;SDS011;34323;52.022;5.686;2022-10-31T06:52:14;21.13;;;11.55;;
48534;SDS011;34323;52.022;5.686;2022-10-31T06:54:39;16.70;;;10.85;;
48534;SDS011;34323;52.022;5.686;2022-10-31T06:57:05;22.75;;;12.25;;
48534;SDS011;34323;52.022;5.686;2022-10-31T06:59:30;19.88;;;11.07;;
48534;SDS011;34323;52.022;5.686;2022-10-31T07:01:57;18.85;;;11.38;;
48534;SDS011;34323;52.022;5.686;2022-10-31T07:04:23;21.75;;;11.88;;
48534;SDS011;34323;52.022;5.686;2022-10-31T07:06:52;26.75;;;12.13;;
48534;SDS011;34323;52.022;5.686;2022-10-31T07:09:18;16.95;;;10.48;;
48534;SDS011;34323;52.022;5.686;2022-10-31T07:11:43;22.40;;;11.75;;
48534;SDS011;34323;52.022;5.686;2022-10-31T07:14:09;28.20;;;12.30;;
48534;SDS011;34323;52.022;5.686;2022-10-31T07:16:34;23.27;;;11.75;;
48534;SDS011;34323;52.022;5.686;2022-10-31T07:19:00;26.52;;;11.60;;
48534;SDS011;34323;52.022;5.686;2022-10-31T07:21:25;21.65;;;12.13;;
48534;SDS011;34323;52.022;5.686;2022-10-31T07:23:51;21.65;;;11.73;;
48534;SDS011;34323;52.022;5.686;2022-10-31T07:26:16;24.05;;;11.50;;
48534;SDS011;34323;52.022;5.686;2022-10-31T07:28:42;20.45;;;11.07;;
48534;SDS011;34323;52.022;5.686;2022-10-31T07:31:07;19.33;;;10.93;;
48534;SDS011;34323;52.022;5.686;2022-10-31T07:33:33;23.58;;;11.45;;
48534;SDS011;34323;52.022;5.686;2022-10-31T07:35:59;22.17;;;12.02;;
48534;SDS011;34323;52.022;5.686;2022-10-31T07:38:25;22.65;;;12.20;;
48534;SDS011;34323;52.022;5.686;2022-10-31T07:40:51;25.08;;;11.57;;
48534;SDS011;34323;52.022;5.686;2022-10-31T07:43:17;19.42;;;12.50;;
48534;SDS011;34323;52.022;5.686;2022-10-31T07:45:43;23.75;;;11.65;;
48534;SDS011;34323;52.022;5.686;2022-10-31T07:48:13;21.13;;;11.80;;
48534;SDS011;34323;52.022;5.686;2022-10-31T07:50:39;20.60;;;11.52;;
48534;SDS011;34323;52.022;5.686;2022-10-31T07:53:09;22.15;;;11.10;;
48534;SDS011;34323;52.022;5.686;2022-10-31T07:55:35;17.52;;;11.35;;
48534;SDS011;34323;52.022;5.686;2022-10-31T07:58:02;22.13;;;12.38;;
48534;SDS011;34323;52.022;5.686;2022-10-31T08:00:30;21.88;;;13.18;;
48534;SDS011;34323;52.022;5.686;2022-10-31T08:02:57;25.13;;;12.75;;
48534;SDS011;34323;52.022;5.686;2022-10-31T08:05:30;25.98;;;12.60;;
48534;SDS011;34323;52.022;5.686;2022-10-31T08:07:57;20.13;;;11.65;;
48534;SDS011;34323;52.022;5.686;2022-10-31T08:10:23;18.77;;;11.82;;
48534;SDS011;34323;52.022;5.686;2022-10-31T08:13:00;19.98;;;12.10;;
48534;SDS011;34323;52.022;5.686;2022-10-31T08:15:27;22.02;;;10.68;;
48534;SDS011;34323;52.022;5.686;2022-10-31T08:17:53;17.90;;;12.13;;
48534;SDS011;34323;52.022;5.686;2022-10-31T08:20:19;16.92;;;9.43;;
48534;SDS011;34323;52.022;5.686;2022-10-31T08:22:58;17.23;;;9.52;;
48534;SDS011;34323;52.022;5.686;2022-10-31T08:25:26;19.85;;;10.82;;
48534;SDS011;34323;52.022;5.686;2022-10-31T08:27:53;20.67;;;10.20;;
48534;SDS011;34323;52.022;5.686;2022-10-31T08:30:20;24.55;;;11.25;;
48534;SDS011;34323;52.022;5.686;2022-10-31T08:32:47;23.15;;;11.75;;
48534;SDS011;34323;52.022;5.686;2022-10-31T08:35:21;20.30;;;12.15;;
48534;SDS011;34323;52.022;5.686;2022-10-31T08:37:51;21.55;;;13.15;;
48534;SDS011;34323;52.022;5.686;2022-10-31T08:40:20;17.20;;;9.63;;
48534;SDS011;34323;52.022;5.686;2022-10-31T08:42:46;14.55;;;8.30;;
48534;SDS011;34323;52.022;5.686;2022-10-31T08:45:12;15.50;;;8.20;;
48534;SDS011;34323;52.022;5.686;2022-10-31T08:47:37;14.10;;;7.22;;
48534;SDS011;34323;52.022;5.686;2022-10-31T08:50:03;12.88;;;8.50;;
48534;SDS011;34323;52.022;5.686;2022-10-31T08:52:29;15.02;;;8.90;;
48534;SDS011;34323;52.022;5.686;2022-10-31T08:54:54;14.85;;;8.27;;
48534;SDS011;34323;52.022;5.686;2022-10-31T08:57:20;11.85;;;8.23;;
48534;SDS011;34323;52.022;5.686;2022-10-31T08:59:45;15.30;;;8.85;;
48534;SDS011;34323;52.022;5.686;2022-10-31T09:02:11;13.63;;;8.70;;
48534;SDS011;34323;52.022;5.686;2022-10-31T09:04:36;15.13;;;8.98;;
48534;SDS011;34323;52.022;5.686;2022-10-31T09:07:02;14.38;;;8.85;;
48534;SDS011;34323;52.022;5.686;2022-10-31T09:09:27;17.25;;;10.27;;
48534;SDS011;34323;52.022;5.686;2022-10-31T09:11:53;14.25;;;8.45;;
48534;SDS011;34323;52.022;5.686;2022-10-31T09:14:19;15.85;;;9.38;;
48534;SDS011;34323;52.022;5.686;2022-10-31T09:16:44;13.75;;;8.25;;
48534;SDS011;34323;52.022;5.686;2022-10-31T09:19:10;13.57;;;8.75;;
48534;SDS011;34323;52.022;5.686;2022-10-31T09:21:35;14.75;;;8.35;;
48534;SDS011;34323;52.022;5.686;2022-10-31T09:24:01;13.88;;;7.80;;
48534;SDS011;34323;52.022;5.686;2022-10-31T09:26:26;17.45;;;9.25;;
48534;SDS011;34323;52.022;5.686;2022-10-31T09:28:52;16.15;;;8.68;;
48534;SDS011;34323;52.022;5.686;2022-10-31T09:31:17;17.38;;;9.50;;
48534;SDS011;34323;52.022;5.686;2022-10-31T09:33:43;15.00;;;8.93;;
48534;SDS011;34323;52.022;5.686;2022-10-31T09:36:08;18.67;;;9.50;;
48534;SDS011;34323;52.022;5.686;2022-10-31T09:38:34;14.65;;;8.98;;
48534;SDS011;34323;52.022;5.686;2022-10-31T09:44:07;15.77;;;9.02;;
48534;SDS011;34323;52.022;5.686;2022-10-31T09:52:16;18.45;;;7.85;;
48534;SDS011;34323;52.022;5.686;2022-10-31T09:54:55;15.77;;;8.38;;
48534;SDS011;34323;52.022;5.686;2022-10-31T09:57:27;15.02;;;8.27;;
48534;SDS011;34323;52.022;5.686;2022-10-31T09:59:56;15.55;;;8.73;;
48534;SDS011;34323;52.022;5.686;2022-10-31T10:02:25;13.93;;;8.05;;
48534;SDS011;34323;52.022;5.686;2022-10-31T10:13:20;13.75;;;7.50;;
48534;SDS011;34323;52.022;5.686;2022-10-31T10:18:32;18.58;;;9.07;;
48534;SDS011;34323;52.022;5.686;2022-10-31T10:21:31;14.57;;;9.45;;
48534;SDS011;34323;52.022;5.686;2022-10-31T10:29:53;16.65;;;9.40;;
48534;SDS011;34323;52.022;5.686;2022-10-31T10:32:34;23.08;;;10.30;;
48534;SDS011;34323;52.022;5.686;2022-10-31T10:35:11;20.63;;;11.27;;
48534;SDS011;34323;52.022;5.686;2022-10-31T10:37:49;21.85;;;10.18;;
48534;SDS011;34323;52.022;5.686;2022-10-31T10:40:25;24.05;;;11.57;;
48534;SDS011;34323;52.022;5.686;2022-10-31T10:43:19;21.55;;;11.60;;
48534;SDS011;34323;52.022;5.686;2022-10-31T10:45:51;24.13;;;12.00;;
48534;SDS011;34323;52.022;5.686;2022-10-31T10:48:53;27.13;;;10.27;;
48534;SDS011;34323;52.022;5.686;2022-10-31T11:00:15;21.60;;;11.63;;
48534;SDS011;34323;52.022;5.686;2022-10-31T11:02:49;24.83;;;12.55;;
48534;SDS011;34323;52.022;5.686;2022-10-31T11:05:25;28.77;;;12.55;;
48534;SDS011;34323;52.022;5.686;2022-10-31T11:08:09;21.95;;;12.15;;
48534;SDS011;34323;52.022;5.686;2022-10-31T11:10:36;22.17;;;12.40;;
48534;SDS011;34323;52.022;5.686;2022-10-31T11:13:14;19.55;;;11.35;;
48534;SDS011;34323;52.022;5.686;2022-10-31T11:15:51;32.85;;;12.32;;
48534;SDS011;34323;52.022;5.686;2022-10-31T11:18:24;23.63;;;12.38;;
48534;SDS011;34323;52.022;5.686;2022-10-31T11:20:53;22.63;;;11.85;;
48534;SDS011;34323;52.022;5.686;2022-10-31T11:23:22;26.63;;;12.18;;
48534;SDS011;34323;52.022;5.686;2022-10-31T11:25:56;24.95;;;13.13;;
48534;SDS011;34323;52.022;5.686;2022-10-31T11:28:23;25.90;;;13.13;;
48534;SDS011;34323;52.022;5.686;2022-10-31T11:30:57;24.45;;;11.70;;
48534;SDS011;34323;52.022;5.686;2022-10-31T11:33:26;28.33;;;13.23;;
48534;SDS011;34323;52.022;5.686;2022-10-31T11:35:55;25.45;;;12.38;;
48534;SDS011;34323;52.022;5.686;2022-10-31T11:38:22;27.92;;;13.35;;
48534;SDS011;34323;52.022;5.686;2022-10-31T11:40:57;28.85;;;13.02;;
48534;SDS011;34323;52.022;5.686;2022-10-31T11:43:25;27.23;;;12.82;;
48534;SDS011;34323;52.022;5.686;2022-10-31T11:45:52;28.48;;;13.07;;
48534;SDS011;34323;52.022;5.686;2022-10-31T11:48:19;28.58;;;12.93;;
48534;SDS011;34323;52.022;5.686;2022-10-31T11:50:48;28.15;;;13.27;;
48534;SDS011;34323;52.022;5.686;2022-10-31T11:53:18;31.15;;;13.88;;
48534;SDS011;34323;52.022;5.686;2022-10-31T11:56:21;30.02;;;14.32;;
48534;SDS011;34323;52.022;5.686;2022-10-31T12:01:49;27.17;;;14.27;;
48534;SDS011;34323;52.022;5.686;2022-10-31T12:04:16;25.67;;;14.10;;
48534;SDS011;34323;52.022;5.686;2022-10-31T12:06:45;34.45;;;16.40;;
48534;SDS011;34323;52.022;5.686;2022-10-31T12:09:22;30.50;;;15.40;;
48534;SDS011;34323;52.022;5.686;2022-10-31T12:12:07;31.13;;;14.48;;
48534;SDS011;34323;52.022;5.686;2022-10-31T12:14:43;33.88;;;14.63;;
48534;SDS011;34323;52.022;5.686;2022-10-31T12:22:36;30.90;;;14.77;;
48534;SDS011;34323;52.022;5.686;2022-10-31T12:41:56;33.67;;;15.68;;
48534;SDS011;34323;52.022;5.686;2022-10-31T12:47:35;27.35;;;14.68;;
48534;SDS011;34323;52.022;5.686;2022-10-31T12:50:33;33.97;;;16.08;;
48534;SDS011;34323;52.022;5.686;2022-10-31T12:56:30;30.45;;;15.52;;
48534;SDS011;34323;52.022;5.686;2022-10-31T12:59:10;30.63;;;15.13;;
48534;SDS011;34323;52.022;5.686;2022-10-31T13:01:44;30.98;;;15.20;;
48534;SDS011;34323;52.022;5.686;2022-10-31T13:10:07;24.60;;;13.25;;
48534;SDS011;34323;52.022;5.686;2022-10-31T13:13:10;31.58;;;14.77;;
48534;SDS011;34323;52.022;5.686;2022-10-31T13:15:46;26.63;;;14.07;;
48534;SDS011;34323;52.022;5.686;2022-10-31T13:18:20;32.10;;;13.35;;
48534;SDS011;34323;52.022;5.686;2022-10-31T13:20:52;31.45;;;15.50;;
48534;SDS011;34323;52.022;5.686;2022-10-31T13:23:33;25.88;;;13.00;;
48534;SDS011;34323;52.022;5.686;2022-10-31T13:26:06;31.25;;;14.35;;
48534;SDS011;34323;52.022;5.686;2022-10-31T13:28:43;32.80;;;14.13;;
48534;SDS011;34323;52.022;5.686;2022-10-31T13:31:22;27.75;;;13.25;;
48534;SDS011;34323;52.022;5.686;2022-10-31T13:33:49;30.50;;;15.45;;
48534;SDS011;34323;52.022;5.686;2022-10-31T13:36:36;29.95;;;15.07;;
48534;SDS011;34323;52.022;5.686;2022-10-31T13:41:46;27.67;;;13.93;;
48534;SDS011;34323;52.022;5.686;2022-10-31T13:44:21;24.73;;;14.50;;
48534;SDS011;34323;52.022;5.686;2022-10-31T13:46:49;31.35;;;14.35;;
48534;SDS011;34323;52.022;5.686;2022-10-31T13:49:35;26.15;;;13.18;;
48534;SDS011;34323;52.022;5.686;2022-10-31T13:54:35;23.05;;;13.35;;
48534;SDS011;34323;52.022;5.686;2022-10-31T13:59:50;28.23;;;14.07;;
48534;SDS011;34323;52.022;5.686;2022-10-31T14:02:21;26.70;;;14.60;;
48534;SDS011;34323;52.022;5.686;2022-10-31T14:04:57;28.33;;;15.63;;
48534;SDS011;34323;52.022;5.686;2022-10-31T14:10:19;22.38;;;12.50;;
48534;SDS011;34323;52.022;5.686;2022-10-31T14:12:54;27.75;;;13.82;;
48534;SDS011;34323;52.022;5.686;2022-10-31T14:15:32;28.88;;;12.68;;
48534;SDS011;34323;52.022;5.686;2022-10-31T14:18:02;30.73;;;14.30;;
48534;SDS011;34323;52.022;5.686;2022-10-31T14:26:07;28.75;;;12.93;;
48534;SDS011;34323;52.022;5.686;2022-10-31T14:29:20;28.58;;;12.23;;
48534;SDS011;34323;52.022;5.686;2022-10-31T14:31:41;25.55;;;13.07;;
48534;SDS011;34323;52.022;5.686;2022-10-31T14:40:02;26.33;;;12.77;;
48534;SDS011;34323;52.022;5.686;2022-10-31T14:45:39;26.50;;;12.52;;
48534;SDS011;34323;52.022;5.686;2022-10-31T14:48:18;30.13;;;13.15;;
48534;SDS011;34323;52.022;5.686;2022-10-31T14:50:50;29.80;;;12.10;;
48534;SDS011;34323;52.022;5.686;2022-10-31T14:53:28;27.00;;;12.05;;
48534;SDS011;34323;52.022;5.686;2022-10-31T14:55:59;25.80;;;11.95;;
48534;SDS011;34323;52.022;5.686;2022-10-31T14:58:33;23.58;;;11.43;;
48534;SDS011;34323;52.022;5.686;2022-10-31T15:01:24;28.33;;;11.40;;
48534;SDS011;34323;52.022;5.686;2022-10-31T15:03:52;34.03;;;12.30;;
48534;SDS011;34323;52.022;5.686;2022-10-31T15:06:22;27.30;;;12.55;;
48534;SDS011;34323;52.022;5.686;2022-10-31T15:08:50;24.75;;;11.95;;
48534;SDS011;34323;52.022;5.686;2022-10-31T15:11:21;23.85;;;10.88;;
48534;SDS011;34323;52.022;5.686;2022-10-31T15:13:51;24.88;;;11.07;;
48534;SDS011;34323;52.022;5.686;2022-10-31T15:16:22;25.48;;;12.23;;
48534;SDS011;34323;52.022;5.686;2022-10-31T15:18:52;27.20;;;11.43;;
48534;SDS011;34323;52.022;5.686;2022-10-31T15:21:24;29.20;;;12.20;;
48534;SDS011;34323;52.022;5.686;2022-10-31T15:23:53;26.75;;;12.63;;
48534;SDS011;34323;52.022;5.686;2022-10-31T15:26:21;26.08;;;12.07;;
48534;SDS011;34323;52.022;5.686;2022-10-31T15:29:00;29.10;;;13.20;;
48534;SDS011;34323;52.022;5.686;2022-10-31T15:31:29;29.65;;;12.75;;
48534;SDS011;34323;52.022;5.686;2022-10-31T15:33:57;30.48;;;12.68;;
48534;SDS011;34323;52.022;5.686;2022-10-31T15:36:26;24.38;;;12.30;;
48534;SDS011;34323;52.022;5.686;2022-10-31T15:38:52;26.33;;;11.73;;
48534;SDS011;34323;52.022;5.686;2022-10-31T15:41:23;26.88;;;11.18;;
48534;SDS011;34323;52.022;5.686;2022-10-31T15:43:55;24.42;;;10.57;;
48534;SDS011;34323;52.022;5.686;2022-10-31T15:46:26;18.65;;;9.73;;
48534;SDS011;34323;52.022;5.686;2022-10-31T15:48:52;24.17;;;10.70;;
48534;SDS011;34323;52.022;5.686;2022-10-31T15:51:24;20.98;;;10.65;;
48534;SDS011;34323;52.022;5.686;2022-10-31T15:53:54;27.33;;;11.65;;
48534;SDS011;34323;52.022;5.686;2022-10-31T15:56:22;26.83;;;11.32;;
48534;SDS011;34323;52.022;5.686;2022-10-31T15:58:50;25.67;;;10.70;;
48534;SDS011;34323;52.022;5.686;2022-10-31T16:01:22;22.70;;;10.77;;
48534;SDS011;34323;52.022;5.686;2022-10-31T16:04:02;19.92;;;9.60;;
48534;SDS011;34323;52.022;5.686;2022-10-31T16:06:30;21.33;;;10.25;;
48534;SDS011;34323;52.022;5.686;2022-10-31T16:08:58;28.17;;;11.38;;
48534;SDS011;34323;52.022;5.686;2022-10-31T16:11:29;30.05;;;11.48;;
48534;SDS011;34323;52.022;5.686;2022-10-31T16:14:06;22.90;;;10.93;;
48534;SDS011;34323;52.022;5.686;2022-10-31T16:16:42;24.60;;;10.90;;
48534;SDS011;34323;52.022;5.686;2022-10-31T16:19:17;29.52;;;12.23;;
48534;SDS011;34323;52.022;5.686;2022-10-31T16:21:47;25.60;;;11.38;;
48534;SDS011;34323;52.022;5.686;2022-10-31T16:24:30;31.60;;;13.15;;
48534;SDS011;34323;52.022;5.686;2022-10-31T16:27:02;39.28;;;12.98;;
48534;SDS011;34323;52.022;5.686;2022-10-31T16:29:34;28.00;;;12.18;;
48534;SDS011;34323;52.022;5.686;2022-10-31T16:32:04;24.30;;;11.85;;
48534;SDS011;34323;52.022;5.686;2022-10-31T16:34:30;25.13;;;10.57;;
48534;SDS011;34323;52.022;5.686;2022-10-31T16:36:55;30.30;;;11.30;;
48534;SDS011;34323;52.022;5.686;2022-10-31T16:39:21;27.42;;;11.68;;
48534;SDS011;34323;52.022;5.686;2022-10-31T16:41:48;27.40;;;12.10;;
48534;SDS011;34323;52.022;5.686;2022-10-31T16:44:21;24.00;;;11.57;;
48534;SDS011;34323;52.022;5.686;2022-10-31T16:46:48;27.30;;;11.70;;
48534;SDS011;34323;52.022;5.686;2022-10-31T16:49:30;21.40;;;11.75;;
48534;SDS011;34323;52.022;5.686;2022-10-31T16:51:56;28.63;;;11.77;;
48534;SDS011;34323;52.022;5.686;2022-10-31T16:54:21;32.42;;;10.98;;
48534;SDS011;34323;52.022;5.686;2022-10-31T16:56:47;27.73;;;12.57;;